Data for 12/17/2010

Time Sea-Level Adjusted Pressure Absolute Pressure Temperature Relative Humidity Dew Point   
(mb) (inHg) (mb) (inHg) (C) (F) (%) (C) (F)
00:05 1019 30.09 848 25.04 -10.2 13.6 69 -14.8 5.4
00:10 1019 30.09 848 25.04 -10.2 13.6 69 -14.9 5.3
00:15 1019 30.09 848 25.04 -10.1 13.8 69 -14.7 5.6
00:20 1019 30.09 848 25.04 -10.2 13.6 69 -14.8 5.4
00:25 1019 30.09 848 25.04 -10.6 12.9 70 -15.1 4.8
00:30 1019 30.09 848 25.04 -10.5 13 68 -15.3 4.5
00:35 1019 30.09 848 25.04 -10.2 13.6 67 -15.2 4.6
00:40 1019 30.09 848 25.04 -10.1 13.9 66 -15.2 4.6
00:45 1019 30.09 848 25.04 -9.7 14.5 64 -15.3 4.4
00:50 1019 30.09 848 25.04 -9.7 14.5 65 -15.1 4.9
00:55 1019 30.09 848 25.04 -10.1 13.9 66 -15.2 4.6
01:00 1019 30.09 848 25.04 -10 14 65 -15.4 4.3
01:05 1019 30.09 848 25.04 -9.7 14.6 65 -15.1 4.8
01:10 1019 30.09 848 25.04 -9.3 15.3 67 -14.4 6.1
01:15 1019 30.09 848 25.04 -9.2 15.5 67 -14.2 6.4
01:20 1019 30.09 848 25.04 -9.3 15.3 67 -14.3 6.3
01:25 1019 30.09 848 25.04 -9.4 15.1 68 -14.3 6.2
01:30 1019 30.09 848 25.04 -9.8 14.4 68 -14.6 5.8
01:35 1019 30.09 848 25.04 -10.4 13.3 70 -14.8 5.4
01:40 1019 30.09 848 25.04 -10.8 12.7 71 -15 4.9
01:45 1019 30.09 848 25.04 -10.9 12.4 71 -15.2 4.7
01:50 1019 30.09 848 25.04 -11.1 12 72 -15.3 4.5
01:55 1019 30.09 848 25.04 -11.2 11.9 72 -15.3 4.5
02:00 1019 30.09 848 25.04 -11.1 12.1 72 -15.2 4.6
02:05 1019 30.09 848 25.04 -10.8 12.6 71 -15 5
02:10 1019 30.09 848 25.04 -10.6 12.9 70 -15.1 4.9
02:15 1019 30.09 848 25.04 -10.6 12.9 70 -15.1 4.8
02:20 1019 30.09 848 25.04 -10.8 12.6 71 -15 5
02:25 1019 30.09 848 25.04 -10.8 12.5 72 -15 5
02:30 1019 30.09 848 25.04 -10.7 12.7 72 -14.9 5.2
02:35 1019 30.09 848 25.04 -10.7 12.8 70 -15.1 4.9
02:40 1019 30.09 848 25.04 -10.8 12.7 70 -15.2 4.7
02:45 1019 30.09 848 25.04 -10.7 12.8 70 -15.1 4.8
02:50 1019 30.09 848 25.04 -10.7 12.8 71 -15 5
02:55 1019 30.09 848 25.04 -10.6 12.8 68 -15.5 4.1
03:00 1019 30.09 848 25.04 -10.8 12.6 68 -15.6 3.9
03:05 1019 30.09 848 25.04 -10.7 12.8 68 -15.5 4.1
03:10 1018 30.06 848 25.04 -10.7 12.7 68 -15.6 4
03:15 1018 30.06 848 25.04 -10.7 12.7 70 -15.2 4.7
03:20 1018 30.06 847 25.01 -10.3 13.4 69 -15 5
03:25 1018 30.06 847 25.01 -10.6 12.9 70 -15.1 4.8
03:30 1018 30.06 847 25.01 -10.8 12.5 70 -15.2 4.6
03:35 1018 30.06 847 25.01 -11 12.2 72 -15.1 4.8
03:40 1018 30.06 847 25.01 -11.1 12.1 72 -15.1 4.8
03:45 1018 30.06 847 25.01 -11.3 11.7 72 -15.4 4.3
03:50 1018 30.06 847 25.01 -11.2 11.8 72 -15.3 4.4
03:55 1018 30.06 847 25.01 -11.3 11.7 73 -15.3 4.4
04:00 1018 30.06 847 25.01 -11.5 11.4 73 -15.4 4.2
04:05 1018 30.06 847 25.01 -11.4 11.5 73 -15.4 4.3
04:10 1018 30.06 847 25.01 -11.2 11.8 72 -15.4 4.4
04:15 1018 30.06 847 25.01 -11.6 11.2 73 -15.5 4.1
04:20 1018 30.06 847 25.01 -11.5 11.2 73 -15.5 4.1
04:25 1018 30.06 847 25.01 -11.5 11.3 73 -15.4 4.3
04:30 1018 30.06 847 25.01 -11.4 11.5 72 -15.4 4.3
04:35 1018 30.06 847 25.01 -11.4 11.5 73 -15.3 4.4
04:40 1018 30.06 847 25.01 -11.5 11.4 72 -15.5 4.1
04:45 1018 30.06 847 25.01 -11.4 11.4 71 -15.7 3.7
04:50 1018 30.06 847 25.01 -11.5 11.3 70 -15.9 3.3
04:55 1018 30.06 847 25.01 -11.4 11.4 70 -15.8 3.5
05:00 1018 30.06 847 25.01 -11.3 11.8 71 -15.5 4
05:05 1018 30.06 847 25.01 -11 12.2 70 -15.5 4.1
05:10 1018 30.06 847 25.01 -11 12.2 70 -15.5 4
05:15 1018 30.06 847 25.01 -11.1 12 70 -15.6 4
05:20 1018 30.06 847 25.01 -11.3 11.7 70 -15.7 3.7
05:25 1018 30.06 847 25.01 -11.2 11.9 68 -16 3.2
05:30 1018 30.06 847 25.01 -11.2 11.8 68 -16 3.3
05:35 1018 30.06 847 25.01 -11.7 10.9 71 -16 3.2
05:40 1018 30.06 847 25.01 -12.1 10.3 73 -16 3.1
05:45 1018 30.06 847 25.01 -12.2 10 71 -16.5 2.3
05:50 1018 30.06 847 25.01 -12.2 10.1 71 -16.4 2.5
05:55 1018 30.06 847 25.01 -12.1 10.2 72 -16.2 2.8
06:00 1018 30.06 847 25.01 -11.6 11.1 70 -16 3.2
06:05 1018 30.06 847 25.01 -11.6 11.1 70 -16 3.2
06:10 1018 30.06 847 25.01 -12.2 10.1 72 -16.2 2.9
06:15 1018 30.06 847 25.01 -12.3 9.9 72 -16.4 2.4
06:20 1018 30.06 847 25.01 -12.5 9.4 73 -16.4 2.5
06:25 1018 30.06 847 25.01 -12.7 9.2 73 -16.5 2.3
06:30 1018 30.06 847 25.01 -12.9 8.8 75 -16.4 2.5
06:35 1018 30.06 847 25.01 -12.5 9.6 73 -16.3 2.6
06:40 1018 30.06 847 25.01 -11.9 10.6 71 -16.2 2.8
06:45 1018 30.06 847 25.01 -12 10.4 71 -16.3 2.7
06:50 1018 30.06 847 25.01 -12.1 10.2 71 -16.3 2.7
06:55 1018 30.06 847 25.01 -12.6 9.4 72 -16.6 2.1
07:00 1018 30.06 847 25.01 -13.2 8.3 74 -16.8 1.7
07:05 1018 30.06 847 25.01 -13.8 7.1 76 -17.2 1
07:10 1018 30.06 847 25.01 -14 6.7 76 -17.3 0.8
07:15 1018 30.06 847 25.01 -14.1 6.7 78 -17.1 1.2
07:20 1018 30.06 847 25.01 -13.3 8 74 -17 1.4
07:25 1018 30.06 847 25.01 -12.7 9.2 74 -16.5 2.4
07:30 1018 30.06 847 25.01 -12.3 9.8 69 -16.9 1.6
07:35 1018 30.06 847 25.01 -11.8 10.8 68 -16.6 2.1
07:40 1018 30.06 847 25.01 -12.1 10.1 69 -16.8 1.8
07:45 1018 30.06 847 25.01 -12.4 9.7 70 -16.9 1.6
07:50 1018 30.06 847 25.01 -12.6 9.3 70 -17 1.4
07:55 1018 30.06 847 25.01 -13.3 8 74 -17.1 1.3
08:00 1018 30.06 847 25.01 -13.7 7.3 75 -17.3 0.8
08:05 1018 30.06 847 25.01 -13.3 8.1 72 -17.3 0.9
08:10 1018 30.06 847 25.01 -12.6 9.4 70 -17 1.4
08:15 1018 30.06 847 25.01 -12.5 9.6 68 -17.2 1
08:20 1018 30.06 847 25.01 -12.2 10.1 67 -17.1 1.3
08:25 1018 30.06 847 25.01 -12.3 9.9 67 -17.2 1.1
08:30 1018 30.06 847 25.01 -12.3 9.8 67 -17.2 1.1
08:35 1018 30.06 847 25.01 -12.4 9.7 69 -16.9 1.5
08:40 1018 30.06 847 25.01 -12.9 8.7 72 -17 1.5
08:45 1018 30.06 847 25.01 -11.9 10.7 67 -16.9 1.6
08:50 1018 30.06 847 25.01 -11.1 12 63 -16.8 1.8
08:55 1018 30.06 847 25.01 -10.8 12.5 64 -16.5 2.3
09:00 1018 30.06 847 25.01 -11.2 11.8 63 -17 1.5
09:05 1018 30.06 847 25.01 -11.5 11.3 65 -16.9 1.6
09:10 1018 30.06 847 25.01 -11.2 11.8 63 -16.9 1.6
09:15 1018 30.06 847 25.01 -11 12.2 63 -16.7 1.9
09:20 1018 30.06 847 25.01 -10.8 12.5 63 -16.6 2.1
09:25 1018 30.06 847 25.01 -10.5 13 62 -16.5 2.2
09:30 1018 30.06 847 25.01 -10.5 13.2 62 -16.4 2.6
09:35 1018 30.06 847 25.01 -10.7 12.8 62 -16.7 1.9
09:40 1018 30.06 847 25.01 -10.7 12.7 62 -16.6 2.2
09:45 1018 30.06 847 25.01 -10.6 13 62 -16.5 2.2
09:50 1018 30.06 847 25.01 -10.2 13.6 59 -16.8 1.8
09:55 1018 30.06 847 25.01 -10.1 13.9 59 -16.5 2.2
10:00 1018 30.06 847 25.01 -10.2 13.6 60 -16.6 2.2
10:05 1018 30.06 847 25.01 -10.3 13.5 61 -16.5 2.3
10:10 1018 30.06 847 25.01 -10 14 60 -16.5 2.4
10:15 1018 30.06 847 25.01 -9.4 15.2 58 -16.3 2.7
10:20 1018 30.06 847 25.01 -9.2 15.5 57 -16.1 3
10:25 1018 30.06 847 25.01 -9.1 15.6 56 -16.3 2.6
10:30 1018 30.06 847 25.01 -8.5 16.6 54 -16.2 2.8
10:35 1018 30.06 847 25.01 -8.6 16.6 53 -16.4 2.4
10:40 1017 30.03 847 25.01 -8.6 16.6 53 -16.5 2.2
10:45 1017 30.03 847 25.01 -8.7 16.3 55 -16.2 2.8
10:50 1017 30.03 847 25.01 -8.7 16.3 54 -16.5 2.3
10:55 1017 30.03 846 24.98 -8.1 17.3 52 -16.5 2.4
11:00 1017 30.03 846 24.98 -7.9 17.7 52 -16.3 2.7
11:05 1017 30.03 846 24.98 -8.2 17.2 53 -16.2 2.8
11:10 1017 30.03 846 24.98 -7.9 17.7 51 -16.4 2.6
11:15 1017 30.03 846 24.98 -8.2 17.3 55 -15.8 3.6
11:20 1017 30.03 846 24.98 -8.7 16.3 55 -16.2 2.9
11:25 1017 30.03 846 24.98 -8.6 16.6 55 -16.1 3.1
11:30 1017 30.03 846 24.98 -7.7 18.1 53 -15.8 3.6
11:35 1017 30.03 846 24.98 -7.4 18.7 52 -15.6 3.8
11:40 1017 30.03 846 24.98 -7.7 18.1 53 -15.8 3.6
11:45 1017 30.03 846 24.98 -7.5 18.4 53 -15.6 3.9
11:50 1017 30.03 846 24.98 -7 19.4 51 -15.4 4.2
11:55 1017 30.03 846 24.98 -6.8 19.8 49 -15.7 3.7
12:00 1017 30.03 846 24.98 -6.9 19.5 51 -15.4 4.2
12:05 1017 30.03 846 24.98 -6.9 19.6 51 -15.4 4.3
12:10 1017 30.03 846 24.98 -6.9 19.5 50 -15.7 3.8
12:15 1017 30.03 846 24.98 -7.3 18.9 52 -15.6 4
12:20 1016 30 846 24.98 -7.5 18.6 52 -15.8 3.6
12:25 1016 30 846 24.98 -7.6 18.4 52 -15.8 3.6
12:30 1016 30 846 24.98 -7.8 18 52 -16.1 3
12:35 1016 30 846 24.98 -7.6 18.4 52 -15.8 3.6
12:40 1016 30 845 24.95 -7.5 18.6 54 -15.3 4.4
12:45 1016 30 845 24.95 -7.3 18.8 52 -15.6 3.9
12:50 1016 30 845 24.95 -7.1 19.2 52 -15.4 4.2
12:55 1016 30 845 24.95 -6.7 20 52 -15.1 4.9
13:00 1016 30 845 24.95 -6.4 20.5 51 -14.9 5.2
13:05 1016 30 845 24.95 -5.9 21.3 49 -15 5
13:10 1016 30 845 24.95 -5.8 21.5 50 -14.7 5.5
13:15 1016 30 845 24.95 -5.9 21.4 49 -14.9 5.2
13:20 1016 30 845 24.95 -6 21.1 51 -14.7 5.5
13:25 1016 30 845 24.95 -6.3 20.6 51 -14.9 5.2
13:30 1016 30 845 24.95 -6.1 21 51 -14.6 5.7
13:35 1016 30 845 24.95 -6.5 20.2 54 -14.3 6.3
13:40 1016 30 845 24.95 -6.5 20.4 53 -14.6 5.8
13:45 1016 30 845 24.95 -6.5 20.4 54 -14.4 6.2
13:50 1016 30 845 24.95 -5.8 21.6 51 -14.4 6
13:55 1015 29.97 845 24.95 -5.8 21.6 51 -14.4 6.1
14:00 1015 29.97 845 24.95 -5.9 21.4 51 -14.5 5.9
14:05 1016 30 845 24.95 -5.5 22.2 50 -14.3 6.2
14:10 1015 29.97 845 24.95 -5.5 22 50 -14.3 6.2
14:15 1015 29.97 845 24.95 -5.4 22.2 48 -14.7 5.6
14:20 1015 29.97 845 24.95 -5.3 22.5 50 -14.2 6.4
14:25 1015 29.97 845 24.95 -5.4 22.2 49 -14.5 5.8
14:30 1015 29.97 845 24.95 -5.9 21.3 51 -14.6 5.8
14:35 1015 29.97 845 24.95 -6.2 20.9 50 -15 5.1
14:40 1015 29.97 845 24.95 -6 21.2 50 -14.8 5.4
14:45 1015 29.97 845 24.95 -6 21.2 52 -14.4 6.1
14:50 1015 29.97 844 24.92 -6.6 20.1 56 -13.9 6.9
14:55 1015 29.97 844 24.92 -6.5 20.2 54 -14.5 5.9
15:00 1015 29.97 844 24.92 -6 21.1 53 -14.2 6.4
15:05 1015 29.97 844 24.92 -6.2 20.9 54 -14 6.7
15:10 1015 29.97 844 24.92 -6.1 21.1 54 -13.9 7.1
15:15 1015 29.97 844 24.92 -6.5 20.4 55 -14.2 6.5
15:20 1015 29.97 845 24.95 -6 21.2 53 -14.2 6.5
15:25 1015 29.97 845 24.95 -6.1 21 53 -14.3 6.2
15:30 1015 29.97 845 24.95 -5.8 21.5 52 -14.2 6.4
15:35 1016 30 845 24.95 -5.9 21.3 52 -14.2 6.4
15:40 1015 29.97 845 24.95 -6.1 20.9 53 -14.2 6.5
15:45 1015 29.97 845 24.95 -6.6 20.1 56 -14 6.8
15:50 1016 30 845 24.95 -6.8 19.7 56 -14.2 6.4
15:55 1016 30 845 24.95 -6.5 20.2 54 -14.3 6.3
16:00 1016 30 845 24.95 -6.9 19.5 56 -14.3 6.2
16:05 1016 30 845 24.95 -7.7 18.1 60 -14.3 6.3
16:10 1016 30 845 24.95 -7.8 18 61 -14.1 6.5
16:15 1016 30 845 24.95 -8.2 17.2 62 -14.3 6.3
16:20 1016 30 845 24.95 -8.3 17 64 -14 6.7
16:25 1016 30 845 24.95 -8.6 16.5 63 -14.4 6
16:30 1016 30 845 24.95 -9.1 15.6 66 -14.3 6.3
16:35 1016 30 845 24.95 -9.7 14.6 68 -14.5 5.9
16:40 1016 30 845 24.95 -9.9 14.2 68 -14.7 5.5
16:45 1016 30 845 24.95 -9.7 14.6 67 -14.6 5.6
16:50 1016 30 845 24.95 -9.7 14.5 68 -14.6 5.7
16:55 1016 30 845 24.95 -9.9 14.2 68 -14.7 5.5
17:00 1016 30 845 24.95 -10.1 13.7 70 -14.6 5.6
17:05 1016 30 845 24.95 -10.4 13.3 71 -14.7 5.5
17:10 1016 30 845 24.95 -10.5 13.2 72 -14.6 5.8
17:15 1016 30 845 24.95 -10.6 13 73 -14.4 6
17:20 1016 30 845 24.95 -10.8 12.6 73 -14.7 5.5
17:25 1016 30 845 24.95 -10.9 12.4 73 -14.8 5.3
17:30 1016 30 845 24.95 -11 12.3 74 -14.8 5.4
17:35 1016 30 845 24.95 -11.1 12 75 -14.7 5.5
17:40 1016 30 845 24.95 -11.2 11.8 76 -14.7 5.5
17:45 1016 30 845 24.95 -11.3 11.7 75 -14.9 5.3
17:50 1016 30 845 24.95 -11.6 11.1 75 -15.2 4.6
17:55 1016 30 845 24.95 -11.9 10.6 75 -15.6 4
18:00 1016 30 845 24.95 -11.9 10.7 76 -15.2 4.6
18:05 1016 30 845 24.95 -11.6 11.1 76 -15 5
18:10 1016 30 845 24.95 -11.9 10.6 77 -15.1 4.8
18:15 1016 30 845 24.95 -12 10.4 79 -15 5.1
18:20 1016 30 845 24.95 -11.9 10.6 78 -15 5
18:25 1016 30 845 24.95 -12.1 10.2 80 -14.9 5.2
18:30 1016 30 845 24.95 -12.3 9.9 80 -15 5
18:35 1016 30 845 24.95 -12.4 9.7 81 -15 5
18:40 1016 30 845 24.95 -12.3 9.8 81 -14.9 5.1
18:45 1016 30 845 24.95 -12.2 10 81 -14.9 5.2
18:50 1016 30 845 24.95 -12.3 10 80 -15 5.1
18:55 1016 30 845 24.95 -12.4 9.8 81 -15 5
19:00 1016 30 845 24.95 -12.4 9.7 81 -15 5
19:05 1016 30 845 24.95 -12.4 9.7 81 -15 5
19:10 1015 29.97 845 24.95 -12.5 9.5 81 -15.1 4.9
19:15 1015 29.97 845 24.95 -12.7 9.1 82 -15.2 4.6
19:20 1015 29.97 845 24.95 -12.8 9.1 82 -15.2 4.6
19:25 1016 30 845 24.95 -12.9 8.9 82 -15.2 4.6
19:30 1015 29.97 845 24.95 -12.9 8.7 83 -15.2 4.6
19:35 1015 29.97 845 24.95 -12.8 8.9 83 -15.2 4.6
19:40 1015 29.97 845 24.95 -12.7 9.2 82 -15.2 4.6
19:45 1016 30 845 24.95 -12.6 9.2 82 -15.2 4.7
19:50 1016 30 845 24.95 -12.7 9.1 82 -15.2 4.6
19:55 1015 29.97 845 24.95 -12.7 9.1 81 -15.3 4.5
20:00 1015 29.97 845 24.95 -12.9 8.8 82 -15.4 4.2
20:05 1015 29.97 845 24.95 -13 8.7 82 -15.5 4.2
20:10 1015 29.97 845 24.95 -13 8.5 82 -15.5 4.1
20:15 1015 29.97 845 24.95 -13 8.7 82 -15.5 4.2
20:20 1015 29.97 845 24.95 -13.1 8.5 82 -15.6 4
20:25 1015 29.97 845 24.95 -13.2 8.2 82 -15.7 3.7
20:30 1015 29.97 845 24.95 -13.4 7.8 82 -15.9 3.5
20:35 1015 29.97 845 24.95 -13.5 7.7 82 -15.9 3.4
20:40 1015 29.97 845 24.95 -13.5 7.7 82 -15.9 3.3
20:45 1015 29.97 845 24.95 -13.5 7.7 82 -16 3.3
20:50 1016 30 845 24.95 -13.5 7.6 82 -16 3.2
20:55 1015 29.97 845 24.95 -13.5 7.7 82 -16 3.2
21:00 1015 29.97 845 24.95 -13.4 8 81 -15.9 3.3
21:05 1015 29.97 845 24.95 -13.4 7.9 81 -16 3.2
21:10 1015 29.97 845 24.95 -13.5 7.8 82 -16 3.2
21:15 1015 29.97 845 24.95 -13.5 7.7 81 -16.1 3.1
21:20 1015 29.97 845 24.95 -13.6 7.5 82 -16.1 3.1
21:25 1015 29.97 845 24.95 -13.6 7.5 82 -16 3.1
21:30 1015 29.97 845 24.95 -13.5 7.7 81 -16.1 3
21:35 1015 29.97 845 24.95 -13.5 7.7 81 -16.2 2.9
21:40 1015 29.97 845 24.95 -13.6 7.5 81 -16.2 2.9
21:45 1015 29.97 845 24.95 -13.7 7.4 81 -16.3 2.7
21:50 1015 29.97 845 24.95 -13.8 7.2 81 -16.4 2.6
21:55 1015 29.97 845 24.95 -13.9 7 81 -16.5 2.4
22:00 1015 29.97 845 24.95 -13.9 7 81 -16.4 2.4
22:05 1016 30 845 24.95 -13.9 7.1 81 -16.4 2.5
22:10 1016 30 845 24.95 -13.9 7.1 81 -16.4 2.4
22:15 1016 30 845 24.95 -13.9 7.1 81 -16.4 2.5
22:20 1016 30 845 24.95 -13.9 7 81 -16.4 2.4
22:25 1016 30 845 24.95 -13.9 7 81 -16.5 2.3
22:30 1016 30 845 24.95 -13.9 7 81 -16.5 2.2
22:35 1016 30 845 24.95 -13.9 6.9 81 -16.5 2.3
22:40 1016 30 845 24.95 -14 6.8 81 -16.6 2.1
22:45 1016 30 845 24.95 -14.1 6.7 81 -16.7 2
22:50 1016 30 845 24.95 -14.2 6.4 81 -16.7 1.9
22:55 1016 30 845 24.95 -14.3 6.3 81 -16.8 1.7
23:00 1016 30 845 24.95 -14.3 6.2 81 -16.8 1.7
23:05 1016 30 845 24.95 -14.3 6.2 81 -16.8 1.7
23:10 1016 30 845 24.95 -14.4 6.2 82 -16.9 1.7
23:15 1016 30 845 24.95 -14.4 6.1 82 -16.9 1.6
23:20 1016 30 845 24.95 -14.5 5.9 82 -17 1.4
23:25 1016 30 845 24.95 -14.6 5.6 82 -17.1 1.3
23:30 1016 30 845 24.95 -14.8 5.4 83 -17.1 1.2
23:35 1016 30 845 24.95 -14.8 5.3 83 -17.1 1.2
23:40 1015 29.97 845 24.95 -14.8 5.3 82 -17.2 1
23:45 1015 29.97 845 24.95 -14.9 5.2 82 -17.3 0.9
23:50 1015 29.97 844 24.92 -14.9 5.1 82 -17.3 0.8
23:55 1015 29.97 844 24.92 -15 5 82 -17.4 0.8
24:00 1015 29.97 844 24.92 -15.1 4.9 81 -17.6 0.4